Bimbo, Central African Republic
Current Conditions -  °F | °C
As of 7:00 PM on Thursday 18 Dec 2014 (Local Time) from FEFF Reporting Station
Clear Clear  
Wind Chill: 81°   Ceiling: Unl
Heat Index: 87°   Visibility: 4mi
Dew Point: 77°   Wind: 0mph
Humidity: 89%   Direction: NA
Pressure: 29.85"   Gusts: NA
Location:  4.3°N, 18.54°E
Report Text: FEFF 181800Z 00000KT 6000 NSC 27/25 Q1011 NOSIG
Loading
Personal Weather Stations






























Interactive Weather Map New forecast layout! Learn more

10-Day Weather Forecast

Advertisements
Track Severe Weather on mobile